sensor_id;sensor_type;location;lat;lon;timestamp;P1;durP1;ratioP1;P2;durP2;ratioP2
80758;SDS011;70150;45.582;10.178;2023-08-06T00:00:40;4.05;;;1.27;;
80758;SDS011;70150;45.582;10.178;2023-08-06T00:03:06;1.45;;;1.05;;
80758;SDS011;70150;45.582;10.178;2023-08-06T00:05:32;1.77;;;1.30;;
80758;SDS011;70150;45.582;10.178;2023-08-06T00:07:57;3.65;;;1.20;;
80758;SDS011;70150;45.582;10.178;2023-08-06T00:10:23;2.97;;;1.20;;
80758;SDS011;70150;45.582;10.178;2023-08-06T00:12:48;3.67;;;1.27;;
80758;SDS011;70150;45.582;10.178;2023-08-06T00:15:14;2.45;;;1.30;;
80758;SDS011;70150;45.582;10.178;2023-08-06T00:17:40;4.03;;;1.17;;
80758;SDS011;70150;45.582;10.178;2023-08-06T00:20:06;2.30;;;1.30;;
80758;SDS011;70150;45.582;10.178;2023-08-06T00:22:32;4.80;;;1.17;;
80758;SDS011;70150;45.582;10.178;2023-08-06T00:24:59;4.18;;;1.30;;
80758;SDS011;70150;45.582;10.178;2023-08-06T00:27:24;4.82;;;1.40;;
80758;SDS011;70150;45.582;10.178;2023-08-06T00:29:50;3.50;;;1.23;;
80758;SDS011;70150;45.582;10.178;2023-08-06T00:32:16;1.92;;;1.27;;
80758;SDS011;70150;45.582;10.178;2023-08-06T00:34:42;1.83;;;1.30;;
80758;SDS011;70150;45.582;10.178;2023-08-06T00:37:07;1.75;;;1.30;;
80758;SDS011;70150;45.582;10.178;2023-08-06T00:39:33;3.95;;;1.42;;
80758;SDS011;70150;45.582;10.178;2023-08-06T00:41:59;7.43;;;1.67;;
80758;SDS011;70150;45.582;10.178;2023-08-06T00:44:24;2.50;;;1.38;;
80758;SDS011;70150;45.582;10.178;2023-08-06T00:46:50;1.95;;;1.20;;
80758;SDS011;70150;45.582;10.178;2023-08-06T00:49:16;2.92;;;1.50;;
80758;SDS011;70150;45.582;10.178;2023-08-06T00:51:42;4.93;;;1.23;;
80758;SDS011;70150;45.582;10.178;2023-08-06T00:54:08;3.50;;;1.42;;
80758;SDS011;70150;45.582;10.178;2023-08-06T00:56:35;1.52;;;1.15;;
80758;SDS011;70150;45.582;10.178;2023-08-06T00:59:02;3.50;;;1.23;;
80758;SDS011;70150;45.582;10.178;2023-08-06T01:01:29;2.58;;;1.20;;
80758;SDS011;70150;45.582;10.178;2023-08-06T01:03:55;3.47;;;1.17;;
80758;SDS011;70150;45.582;10.178;2023-08-06T01:06:23;4.68;;;1.42;;
80758;SDS011;70150;45.582;10.178;2023-08-06T01:08:57;2.30;;;1.27;;
80758;SDS011;70150;45.582;10.178;2023-08-06T01:11:30;3.45;;;1.40;;
80758;SDS011;70150;45.582;10.178;2023-08-06T01:16:38;2.45;;;1.33;;
80758;SDS011;70150;45.582;10.178;2023-08-06T01:19:15;5.05;;;1.70;;
80758;SDS011;70150;45.582;10.178;2023-08-06T01:21:42;3.28;;;1.30;;
80758;SDS011;70150;45.582;10.178;2023-08-06T01:24:07;5.13;;;1.33;;
80758;SDS011;70150;45.582;10.178;2023-08-06T01:26:38;3.28;;;1.38;;
80758;SDS011;70150;45.582;10.178;2023-08-06T01:29:13;3.67;;;1.35;;
80758;SDS011;70150;45.582;10.178;2023-08-06T01:31:44;2.05;;;1.20;;
80758;SDS011;70150;45.582;10.178;2023-08-06T01:34:17;3.28;;;1.40;;
80758;SDS011;70150;45.582;10.178;2023-08-06T01:36:46;2.85;;;1.23;;
80758;SDS011;70150;45.582;10.178;2023-08-06T01:39:15;2.13;;;1.10;;
80758;SDS011;70150;45.582;10.178;2023-08-06T01:41:41;1.50;;;1.33;;
80758;SDS011;70150;45.582;10.178;2023-08-06T01:44:06;2.63;;;1.20;;
80758;SDS011;70150;45.582;10.178;2023-08-06T01:46:32;2.70;;;1.35;;
80758;SDS011;70150;45.582;10.178;2023-08-06T01:48:58;2.22;;;1.30;;
80758;SDS011;70150;45.582;10.178;2023-08-06T01:51:23;5.00;;;1.55;;
80758;SDS011;70150;45.582;10.178;2023-08-06T01:53:49;3.00;;;1.33;;
80758;SDS011;70150;45.582;10.178;2023-08-06T01:56:15;1.95;;;1.40;;
80758;SDS011;70150;45.582;10.178;2023-08-06T01:58:40;2.42;;;1.20;;
80758;SDS011;70150;45.582;10.178;2023-08-06T02:01:06;3.55;;;1.38;;
80758;SDS011;70150;45.582;10.178;2023-08-06T02:03:32;2.70;;;1.30;;
80758;SDS011;70150;45.582;10.178;2023-08-06T02:05:57;5.80;;;1.50;;
80758;SDS011;70150;45.582;10.178;2023-08-06T02:08:26;2.50;;;1.17;;
80758;SDS011;70150;45.582;10.178;2023-08-06T02:10:52;3.67;;;1.58;;
80758;SDS011;70150;45.582;10.178;2023-08-06T02:13:18;3.10;;;1.30;;
80758;SDS011;70150;45.582;10.178;2023-08-06T02:15:46;4.03;;;1.17;;
80758;SDS011;70150;45.582;10.178;2023-08-06T02:18:13;2.58;;;1.40;;
80758;SDS011;70150;45.582;10.178;2023-08-06T02:20:40;2.25;;;1.27;;
80758;SDS011;70150;45.582;10.178;2023-08-06T02:23:06;3.92;;;1.40;;
80758;SDS011;70150;45.582;10.178;2023-08-06T02:25:31;5.38;;;1.40;;
80758;SDS011;70150;45.582;10.178;2023-08-06T02:27:57;1.80;;;1.08;;
80758;SDS011;70150;45.582;10.178;2023-08-06T02:30:23;4.38;;;1.15;;
80758;SDS011;70150;45.582;10.178;2023-08-06T02:32:48;2.75;;;1.30;;
80758;SDS011;70150;45.582;10.178;2023-08-06T02:35:14;2.30;;;1.10;;
80758;SDS011;70150;45.582;10.178;2023-08-06T02:37:40;3.10;;;1.23;;
80758;SDS011;70150;45.582;10.178;2023-08-06T02:40:06;3.35;;;1.67;;
80758;SDS011;70150;45.582;10.178;2023-08-06T02:42:32;1.90;;;1.23;;
80758;SDS011;70150;45.582;10.178;2023-08-06T02:44:58;6.45;;;1.40;;
80758;SDS011;70150;45.582;10.178;2023-08-06T02:47:23;5.35;;;1.42;;
80758;SDS011;70150;45.582;10.178;2023-08-06T02:49:49;4.75;;;1.33;;
80758;SDS011;70150;45.582;10.178;2023-08-06T02:52:15;3.25;;;1.50;;
80758;SDS011;70150;45.582;10.178;2023-08-06T02:54:40;4.05;;;1.27;;
80758;SDS011;70150;45.582;10.178;2023-08-06T02:57:06;2.33;;;1.30;;
80758;SDS011;70150;45.582;10.178;2023-08-06T02:59:32;3.95;;;1.50;;
80758;SDS011;70150;45.582;10.178;2023-08-06T03:02:00;2.80;;;1.33;;
80758;SDS011;70150;45.582;10.178;2023-08-06T03:04:28;2.55;;;1.25;;
80758;SDS011;70150;45.582;10.178;2023-08-06T03:06:54;5.25;;;1.90;;
80758;SDS011;70150;45.582;10.178;2023-08-06T03:09:19;3.08;;;1.63;;
80758;SDS011;70150;45.582;10.178;2023-08-06T03:11:45;2.15;;;1.40;;
80758;SDS011;70150;45.582;10.178;2023-08-06T03:14:13;2.40;;;1.48;;
80758;SDS011;70150;45.582;10.178;2023-08-06T03:16:38;4.60;;;1.40;;
80758;SDS011;70150;45.582;10.178;2023-08-06T03:19:04;3.72;;;1.60;;
80758;SDS011;70150;45.582;10.178;2023-08-06T03:21:29;3.67;;;1.30;;
80758;SDS011;70150;45.582;10.178;2023-08-06T03:23:55;2.58;;;1.55;;
80758;SDS011;70150;45.582;10.178;2023-08-06T03:26:20;2.38;;;1.70;;
80758;SDS011;70150;45.582;10.178;2023-08-06T03:28:46;2.10;;;1.45;;
80758;SDS011;70150;45.582;10.178;2023-08-06T03:31:12;1.80;;;1.33;;
80758;SDS011;70150;45.582;10.178;2023-08-06T03:33:37;3.28;;;1.40;;
80758;SDS011;70150;45.582;10.178;2023-08-06T03:36:03;2.55;;;1.50;;
80758;SDS011;70150;45.582;10.178;2023-08-06T03:38:31;2.50;;;1.52;;
80758;SDS011;70150;45.582;10.178;2023-08-06T03:40:56;3.13;;;1.60;;
80758;SDS011;70150;45.582;10.178;2023-08-06T03:43:22;2.80;;;1.45;;
80758;SDS011;70150;45.582;10.178;2023-08-06T03:45:50;4.30;;;1.70;;
80758;SDS011;70150;45.582;10.178;2023-08-06T03:48:16;3.95;;;1.63;;
80758;SDS011;70150;45.582;10.178;2023-08-06T03:50:41;1.83;;;1.30;;
80758;SDS011;70150;45.582;10.178;2023-08-06T03:53:07;3.45;;;1.60;;
80758;SDS011;70150;45.582;10.178;2023-08-06T03:55:32;3.30;;;1.30;;
80758;SDS011;70150;45.582;10.178;2023-08-06T03:57:58;3.10;;;1.40;;
80758;SDS011;70150;45.582;10.178;2023-08-06T04:00:26;4.20;;;1.50;;
80758;SDS011;70150;45.582;10.178;2023-08-06T04:02:51;2.00;;;1.23;;
80758;SDS011;70150;45.582;10.178;2023-08-06T04:05:18;2.58;;;1.52;;
80758;SDS011;70150;45.582;10.178;2023-08-06T04:07:43;3.20;;;1.65;;
80758;SDS011;70150;45.582;10.178;2023-08-06T04:10:09;4.90;;;1.42;;
80758;SDS011;70150;45.582;10.178;2023-08-06T04:12:37;2.65;;;1.30;;
80758;SDS011;70150;45.582;10.178;2023-08-06T04:15:04;3.75;;;1.25;;
80758;SDS011;70150;45.582;10.178;2023-08-06T04:17:30;2.95;;;1.35;;
80758;SDS011;70150;45.582;10.178;2023-08-06T04:19:56;3.97;;;1.48;;
80758;SDS011;70150;45.582;10.178;2023-08-06T04:22:26;2.58;;;1.40;;
80758;SDS011;70150;45.582;10.178;2023-08-06T04:24:51;6.45;;;1.40;;
80758;SDS011;70150;45.582;10.178;2023-08-06T04:27:18;4.45;;;1.55;;
80758;SDS011;70150;45.582;10.178;2023-08-06T04:29:44;2.80;;;1.40;;
80758;SDS011;70150;45.582;10.178;2023-08-06T04:32:09;1.85;;;1.42;;
80758;SDS011;70150;45.582;10.178;2023-08-06T04:34:36;1.95;;;1.40;;
80758;SDS011;70150;45.582;10.178;2023-08-06T04:37:02;5.22;;;1.85;;
80758;SDS011;70150;45.582;10.178;2023-08-06T04:39:28;5.00;;;1.88;;
80758;SDS011;70150;45.582;10.178;2023-08-06T04:41:55;4.05;;;2.03;;
80758;SDS011;70150;45.582;10.178;2023-08-06T04:44:22;4.10;;;2.15;;
80758;SDS011;70150;45.582;10.178;2023-08-06T04:46:48;3.85;;;1.80;;
80758;SDS011;70150;45.582;10.178;2023-08-06T04:49:14;1.88;;;1.40;;
80758;SDS011;70150;45.582;10.178;2023-08-06T04:51:39;2.53;;;1.45;;
80758;SDS011;70150;45.582;10.178;2023-08-06T04:54:05;1.92;;;1.40;;
80758;SDS011;70150;45.582;10.178;2023-08-06T04:56:31;2.88;;;1.40;;
80758;SDS011;70150;45.582;10.178;2023-08-06T04:58:57;2.72;;;1.55;;
80758;SDS011;70150;45.582;10.178;2023-08-06T05:01:24;3.00;;;1.50;;
80758;SDS011;70150;45.582;10.178;2023-08-06T05:03:50;2.65;;;1.50;;
80758;SDS011;70150;45.582;10.178;2023-08-06T05:06:15;2.58;;;1.98;;
80758;SDS011;70150;45.582;10.178;2023-08-06T05:08:41;3.65;;;1.85;;
80758;SDS011;70150;45.582;10.178;2023-08-06T05:11:06;2.88;;;1.80;;
80758;SDS011;70150;45.582;10.178;2023-08-06T05:13:32;4.43;;;1.65;;
80758;SDS011;70150;45.582;10.178;2023-08-06T05:15:57;4.18;;;1.98;;
80758;SDS011;70150;45.582;10.178;2023-08-06T05:18:25;3.92;;;1.65;;
80758;SDS011;70150;45.582;10.178;2023-08-06T05:20:51;3.10;;;1.60;;
80758;SDS011;70150;45.582;10.178;2023-08-06T05:23:16;4.47;;;1.52;;
80758;SDS011;70150;45.582;10.178;2023-08-06T05:25:42;2.13;;;1.50;;
80758;SDS011;70150;45.582;10.178;2023-08-06T05:28:07;2.55;;;1.50;;
80758;SDS011;70150;45.582;10.178;2023-08-06T05:30:33;2.97;;;1.25;;
80758;SDS011;70150;45.582;10.178;2023-08-06T05:32:58;2.22;;;1.15;;
80758;SDS011;70150;45.582;10.178;2023-08-06T05:35:24;1.75;;;1.10;;
80758;SDS011;70150;45.582;10.178;2023-08-06T05:37:50;1.95;;;1.20;;
80758;SDS011;70150;45.582;10.178;2023-08-06T05:40:15;3.33;;;1.40;;
80758;SDS011;70150;45.582;10.178;2023-08-06T05:42:41;1.80;;;1.50;;
80758;SDS011;70150;45.582;10.178;2023-08-06T05:45:07;3.05;;;1.45;;
80758;SDS011;70150;45.582;10.178;2023-08-06T05:49:59;5.10;;;1.60;;
80758;SDS011;70150;45.582;10.178;2023-08-06T05:52:24;1.70;;;1.33;;
80758;SDS011;70150;45.582;10.178;2023-08-06T05:54:50;3.33;;;1.20;;
80758;SDS011;70150;45.582;10.178;2023-08-06T05:57:16;1.65;;;1.20;;
80758;SDS011;70150;45.582;10.178;2023-08-06T05:59:41;2.50;;;1.40;;
80758;SDS011;70150;45.582;10.178;2023-08-06T06:02:07;1.30;;;1.00;;
80758;SDS011;70150;45.582;10.178;2023-08-06T06:04:33;1.58;;;1.30;;
80758;SDS011;70150;45.582;10.178;2023-08-06T06:06:58;1.30;;;1.00;;
80758;SDS011;70150;45.582;10.178;2023-08-06T06:09:24;1.33;;;1.00;;
80758;SDS011;70150;45.582;10.178;2023-08-06T06:11:50;4.65;;;1.10;;
80758;SDS011;70150;45.582;10.178;2023-08-06T06:14:16;1.95;;;0.85;;
80758;SDS011;70150;45.582;10.178;2023-08-06T06:16:42;3.45;;;0.90;;
80758;SDS011;70150;45.582;10.178;2023-08-06T06:19:08;1.98;;;0.80;;
80758;SDS011;70150;45.582;10.178;2023-08-06T06:21:33;1.95;;;1.02;;
80758;SDS011;70150;45.582;10.178;2023-08-06T06:23:59;3.03;;;0.90;;
80758;SDS011;70150;45.582;10.178;2023-08-06T06:26:24;1.15;;;0.68;;
80758;SDS011;70150;45.582;10.178;2023-08-06T06:28:50;1.08;;;0.90;;
80758;SDS011;70150;45.582;10.178;2023-08-06T06:31:16;1.25;;;0.80;;
80758;SDS011;70150;45.582;10.178;2023-08-06T06:33:41;3.42;;;1.15;;
80758;SDS011;70150;45.582;10.178;2023-08-06T06:36:07;0.98;;;0.80;;
80758;SDS011;70150;45.582;10.178;2023-08-06T06:38:33;1.30;;;1.20;;
80758;SDS011;70150;45.582;10.178;2023-08-06T06:40:59;2.45;;;1.00;;
80758;SDS011;70150;45.582;10.178;2023-08-06T06:43:25;3.17;;;1.15;;
80758;SDS011;70150;45.582;10.178;2023-08-06T06:45:52;2.33;;;1.00;;
80758;SDS011;70150;45.582;10.178;2023-08-06T06:48:19;2.30;;;1.15;;
80758;SDS011;70150;45.582;10.178;2023-08-06T06:50:47;3.45;;;1.20;;
80758;SDS011;70150;45.582;10.178;2023-08-06T06:53:13;1.92;;;1.23;;
80758;SDS011;70150;45.582;10.178;2023-08-06T06:55:39;4.40;;;1.38;;
80758;SDS011;70150;45.582;10.178;2023-08-06T06:58:04;1.52;;;1.20;;
80758;SDS011;70150;45.582;10.178;2023-08-06T07:00:30;2.40;;;1.10;;
80758;SDS011;70150;45.582;10.178;2023-08-06T07:02:56;2.63;;;1.13;;
80758;SDS011;70150;45.582;10.178;2023-08-06T07:05:21;3.90;;;1.20;;
80758;SDS011;70150;45.582;10.178;2023-08-06T07:07:47;1.95;;;1.10;;
80758;SDS011;70150;45.582;10.178;2023-08-06T07:10:12;3.00;;;1.20;;
80758;SDS011;70150;45.582;10.178;2023-08-06T07:12:38;1.50;;;1.10;;
80758;SDS011;70150;45.582;10.178;2023-08-06T07:15:05;2.53;;;1.10;;
80758;SDS011;70150;45.582;10.178;2023-08-06T07:17:31;2.13;;;1.30;;
80758;SDS011;70150;45.582;10.178;2023-08-06T07:19:59;3.35;;;1.30;;
80758;SDS011;70150;45.582;10.178;2023-08-06T07:22:25;2.78;;;1.20;;
80758;SDS011;70150;45.582;10.178;2023-08-06T07:24:50;1.80;;;1.40;;
80758;SDS011;70150;45.582;10.178;2023-08-06T07:27:16;2.17;;;1.17;;
80758;SDS011;70150;45.582;10.178;2023-08-06T07:29:41;2.20;;;1.50;;
80758;SDS011;70150;45.582;10.178;2023-08-06T07:32:07;2.08;;;1.30;;
80758;SDS011;70150;45.582;10.178;2023-08-06T07:34:33;1.52;;;1.40;;
80758;SDS011;70150;45.582;10.178;2023-08-06T07:36:58;2.40;;;1.30;;
80758;SDS011;70150;45.582;10.178;2023-08-06T07:39:24;2.22;;;1.40;;
80758;SDS011;70150;45.582;10.178;2023-08-06T07:41:50;3.92;;;2.50;;
80758;SDS011;70150;45.582;10.178;2023-08-06T07:44:15;3.42;;;2.00;;
80758;SDS011;70150;45.582;10.178;2023-08-06T07:46:41;3.35;;;1.98;;
80758;SDS011;70150;45.582;10.178;2023-08-06T07:49:07;4.50;;;1.92;;
80758;SDS011;70150;45.582;10.178;2023-08-06T07:51:33;4.25;;;2.00;;
80758;SDS011;70150;45.582;10.178;2023-08-06T07:53:59;3.47;;;2.28;;
80758;SDS011;70150;45.582;10.178;2023-08-06T07:56:24;5.82;;;2.20;;
80758;SDS011;70150;45.582;10.178;2023-08-06T07:58:50;3.53;;;2.00;;
80758;SDS011;70150;45.582;10.178;2023-08-06T08:01:16;3.53;;;2.45;;
80758;SDS011;70150;45.582;10.178;2023-08-06T08:03:43;3.67;;;2.63;;
80758;SDS011;70150;45.582;10.178;2023-08-06T08:06:09;4.70;;;2.90;;
80758;SDS011;70150;45.582;10.178;2023-08-06T08:08:34;5.15;;;2.55;;
80758;SDS011;70150;45.582;10.178;2023-08-06T08:11:03;4.70;;;2.47;;
80758;SDS011;70150;45.582;10.178;2023-08-06T08:13:29;3.17;;;2.53;;
80758;SDS011;70150;45.582;10.178;2023-08-06T08:18:23;3.88;;;2.47;;
80758;SDS011;70150;45.582;10.178;2023-08-06T08:20:49;4.43;;;2.50;;
80758;SDS011;70150;45.582;10.178;2023-08-06T08:23:15;4.22;;;2.10;;
80758;SDS011;70150;45.582;10.178;2023-08-06T08:25:41;3.67;;;2.20;;
80758;SDS011;70150;45.582;10.178;2023-08-06T08:28:06;5.20;;;2.28;;
80758;SDS011;70150;45.582;10.178;2023-08-06T08:30:35;4.53;;;2.35;;
80758;SDS011;70150;45.582;10.178;2023-08-06T08:33:00;3.70;;;2.67;;
80758;SDS011;70150;45.582;10.178;2023-08-06T08:35:26;4.18;;;2.63;;
80758;SDS011;70150;45.582;10.178;2023-08-06T08:37:52;5.63;;;3.03;;
80758;SDS011;70150;45.582;10.178;2023-08-06T08:40:17;3.60;;;2.53;;
80758;SDS011;70150;45.582;10.178;2023-08-06T08:42:43;2.00;;;1.80;;
80758;SDS011;70150;45.582;10.178;2023-08-06T08:45:11;3.85;;;2.10;;
80758;SDS011;70150;45.582;10.178;2023-08-06T08:47:39;4.68;;;2.33;;
80758;SDS011;70150;45.582;10.178;2023-08-06T08:50:08;3.95;;;2.08;;
80758;SDS011;70150;45.582;10.178;2023-08-06T08:52:36;4.80;;;1.90;;
80758;SDS011;70150;45.582;10.178;2023-08-06T08:55:04;3.97;;;2.03;;
80758;SDS011;70150;45.582;10.178;2023-08-06T08:57:30;2.95;;;1.60;;
80758;SDS011;70150;45.582;10.178;2023-08-06T08:59:56;1.88;;;1.50;;
80758;SDS011;70150;45.582;10.178;2023-08-06T09:02:21;3.50;;;1.70;;
80758;SDS011;70150;45.582;10.178;2023-08-06T09:04:50;3.35;;;1.50;;
80758;SDS011;70150;45.582;10.178;2023-08-06T09:07:17;3.72;;;1.63;;
80758;SDS011;70150;45.582;10.178;2023-08-06T09:09:46;2.33;;;1.50;;
80758;SDS011;70150;45.582;10.178;2023-08-06T09:12:15;2.88;;;1.45;;
80758;SDS011;70150;45.582;10.178;2023-08-06T09:14:41;2.22;;;1.40;;
80758;SDS011;70150;45.582;10.178;2023-08-06T09:17:08;2.50;;;1.40;;
80758;SDS011;70150;45.582;10.178;2023-08-06T09:19:35;3.10;;;1.10;;
80758;SDS011;70150;45.582;10.178;2023-08-06T09:22:02;2.47;;;1.15;;
80758;SDS011;70150;45.582;10.178;2023-08-06T09:24:27;3.00;;;1.05;;
80758;SDS011;70150;45.582;10.178;2023-08-06T09:26:53;1.75;;;0.95;;
80758;SDS011;70150;45.582;10.178;2023-08-06T09:29:19;2.13;;;1.15;;
80758;SDS011;70150;45.582;10.178;2023-08-06T09:31:46;1.38;;;1.10;;
80758;SDS011;70150;45.582;10.178;2023-08-06T09:34:15;1.05;;;0.93;;
80758;SDS011;70150;45.582;10.178;2023-08-06T09:36:42;5.43;;;1.35;;
80758;SDS011;70150;45.582;10.178;2023-08-06T09:41:39;2.38;;;1.08;;
80758;SDS011;70150;45.582;10.178;2023-08-06T09:46:40;3.72;;;1.40;;
80758;SDS011;70150;45.582;10.178;2023-08-06T09:49:06;2.63;;;1.27;;
80758;SDS011;70150;45.582;10.178;2023-08-06T09:51:33;3.03;;;1.40;;
80758;SDS011;70150;45.582;10.178;2023-08-06T09:54:00;2.28;;;1.55;;
80758;SDS011;70150;45.582;10.178;2023-08-06T09:56:26;1.67;;;1.30;;
80758;SDS011;70150;45.582;10.178;2023-08-06T09:58:53;1.63;;;1.38;;
80758;SDS011;70150;45.582;10.178;2023-08-06T10:01:20;3.72;;;1.25;;
80758;SDS011;70150;45.582;10.178;2023-08-06T10:03:48;1.20;;;1.10;;
80758;SDS011;70150;45.582;10.178;2023-08-06T10:06:16;1.35;;;1.00;;
80758;SDS011;70150;45.582;10.178;2023-08-06T10:11:12;1.52;;;1.08;;
80758;SDS011;70150;45.582;10.178;2023-08-06T10:13:39;2.30;;;1.10;;
80758;SDS011;70150;45.582;10.178;2023-08-06T10:16:05;2.92;;;1.00;;
80758;SDS011;70150;45.582;10.178;2023-08-06T10:18:31;2.92;;;1.02;;
80758;SDS011;70150;45.582;10.178;2023-08-06T10:20:58;2.17;;;0.90;;
80758;SDS011;70150;45.582;10.178;2023-08-06T10:23:32;1.13;;;0.88;;
80758;SDS011;70150;45.582;10.178;2023-08-06T10:25:59;1.67;;;1.00;;
80758;SDS011;70150;45.582;10.178;2023-08-06T10:28:33;2.42;;;1.08;;
80758;SDS011;70150;45.582;10.178;2023-08-06T10:31:02;3.75;;;1.00;;
80758;SDS011;70150;45.582;10.178;2023-08-06T10:33:39;1.80;;;0.90;;
80758;SDS011;70150;45.582;10.178;2023-08-06T10:36:07;1.02;;;0.80;;
80758;SDS011;70150;45.582;10.178;2023-08-06T10:38:35;1.33;;;0.90;;
80758;SDS011;70150;45.582;10.178;2023-08-06T10:41:08;1.52;;;1.05;;
80758;SDS011;70150;45.582;10.178;2023-08-06T10:43:41;1.02;;;0.80;;
80758;SDS011;70150;45.582;10.178;2023-08-06T10:46:09;1.30;;;1.00;;
80758;SDS011;70150;45.582;10.178;2023-08-06T10:53:35;3.63;;;1.00;;
80758;SDS011;70150;45.582;10.178;2023-08-06T10:56:01;0.95;;;0.80;;
80758;SDS011;70150;45.582;10.178;2023-08-06T11:00:56;5.97;;;1.63;;
80758;SDS011;70150;45.582;10.178;2023-08-06T11:03:22;1.08;;;0.80;;
80758;SDS011;70150;45.582;10.178;2023-08-06T11:05:48;1.55;;;0.98;;
80758;SDS011;70150;45.582;10.178;2023-08-06T11:08:23;1.00;;;0.90;;
80758;SDS011;70150;45.582;10.178;2023-08-06T11:10:51;2.35;;;1.25;;
80758;SDS011;70150;45.582;10.178;2023-08-06T11:13:17;2.13;;;0.80;;
80758;SDS011;70150;45.582;10.178;2023-08-06T11:15:44;2.13;;;0.88;;
80758;SDS011;70150;45.582;10.178;2023-08-06T11:18:10;1.40;;;0.90;;
80758;SDS011;70150;45.582;10.178;2023-08-06T11:20:36;0.95;;;0.70;;
80758;SDS011;70150;45.582;10.178;2023-08-06T11:23:05;1.92;;;0.68;;
80758;SDS011;70150;45.582;10.178;2023-08-06T11:25:31;0.80;;;0.60;;
80758;SDS011;70150;45.582;10.178;2023-08-06T11:28:08;2.63;;;0.90;;
80758;SDS011;70150;45.582;10.178;2023-08-06T11:30:35;2.30;;;0.90;;
80758;SDS011;70150;45.582;10.178;2023-08-06T11:33:00;1.73;;;0.70;;
80758;SDS011;70150;45.582;10.178;2023-08-06T11:35:26;1.08;;;0.63;;
80758;SDS011;70150;45.582;10.178;2023-08-06T11:37:51;1.92;;;0.70;;
80758;SDS011;70150;45.582;10.178;2023-08-06T11:40:17;1.25;;;0.70;;
80758;SDS011;70150;45.582;10.178;2023-08-06T11:42:43;0.80;;;0.50;;
80758;SDS011;70150;45.582;10.178;2023-08-06T11:45:08;2.00;;;0.80;;
80758;SDS011;70150;45.582;10.178;2023-08-06T11:47:37;0.80;;;0.50;;
80758;SDS011;70150;45.582;10.178;2023-08-06T11:50:04;1.65;;;0.73;;
80758;SDS011;70150;45.582;10.178;2023-08-06T11:52:31;0.93;;;0.73;;
80758;SDS011;70150;45.582;10.178;2023-08-06T11:57:30;0.80;;;0.70;;
80758;SDS011;70150;45.582;10.178;2023-08-06T12:00:01;1.10;;;0.70;;
80758;SDS011;70150;45.582;10.178;2023-08-06T12:02:30;0.93;;;0.68;;
80758;SDS011;70150;45.582;10.178;2023-08-06T12:05:00;1.05;;;0.77;;
80758;SDS011;70150;45.582;10.178;2023-08-06T12:07:29;0.75;;;0.60;;
80758;SDS011;70150;45.582;10.178;2023-08-06T12:09:55;0.90;;;0.70;;
80758;SDS011;70150;45.582;10.178;2023-08-06T12:12:24;0.85;;;0.50;;
80758;SDS011;70150;45.582;10.178;2023-08-06T12:14:50;3.13;;;0.70;;
80758;SDS011;70150;45.582;10.178;2023-08-06T12:17:16;0.60;;;0.57;;
80758;SDS011;70150;45.582;10.178;2023-08-06T12:19:42;1.00;;;0.70;;
80758;SDS011;70150;45.582;10.178;2023-08-06T12:22:09;1.23;;;0.70;;
80758;SDS011;70150;45.582;10.178;2023-08-06T12:24:35;0.85;;;0.60;;
80758;SDS011;70150;45.582;10.178;2023-08-06T12:27:00;0.77;;;0.50;;
80758;SDS011;70150;45.582;10.178;2023-08-06T12:29:28;0.85;;;0.60;;
80758;SDS011;70150;45.582;10.178;2023-08-06T12:31:53;0.55;;;0.43;;
80758;SDS011;70150;45.582;10.178;2023-08-06T12:34:19;0.60;;;0.43;;
80758;SDS011;70150;45.582;10.178;2023-08-06T12:36:44;0.40;;;0.40;;
80758;SDS011;70150;45.582;10.178;2023-08-06T12:39:10;0.98;;;0.70;;
80758;SDS011;70150;45.582;10.178;2023-08-06T12:41:35;2.95;;;0.47;;
80758;SDS011;70150;45.582;10.178;2023-08-06T12:44:01;0.50;;;0.50;;
80758;SDS011;70150;45.582;10.178;2023-08-06T12:46:27;1.52;;;0.55;;
80758;SDS011;70150;45.582;10.178;2023-08-06T12:48:52;0.98;;;0.75;;
80758;SDS011;70150;45.582;10.178;2023-08-06T12:51:18;0.90;;;0.68;;
80758;SDS011;70150;45.582;10.178;2023-08-06T12:53:43;0.77;;;0.50;;
80758;SDS011;70150;45.582;10.178;2023-08-06T12:56:12;1.20;;;0.43;;
80758;SDS011;70150;45.582;10.178;2023-08-06T12:58:37;1.00;;;0.55;;
80758;SDS011;70150;45.582;10.178;2023-08-06T13:01:05;1.75;;;0.50;;
80758;SDS011;70150;45.582;10.178;2023-08-06T13:03:30;1.60;;;0.50;;
80758;SDS011;70150;45.582;10.178;2023-08-06T13:05:56;2.53;;;0.50;;
80758;SDS011;70150;45.582;10.178;2023-08-06T13:08:23;1.20;;;0.60;;
80758;SDS011;70150;45.582;10.178;2023-08-06T13:10:48;0.50;;;0.50;;
80758;SDS011;70150;45.582;10.178;2023-08-06T13:13:14;0.73;;;0.60;;
80758;SDS011;70150;45.582;10.178;2023-08-06T13:15:40;0.85;;;0.52;;
80758;SDS011;70150;45.582;10.178;2023-08-06T13:18:07;0.80;;;0.50;;
80758;SDS011;70150;45.582;10.178;2023-08-06T13:20:33;0.50;;;0.38;;
80758;SDS011;70150;45.582;10.178;2023-08-06T13:22:58;0.57;;;0.43;;
80758;SDS011;70150;45.582;10.178;2023-08-06T13:25:26;0.75;;;0.50;;
80758;SDS011;70150;45.582;10.178;2023-08-06T13:27:53;1.13;;;0.70;;
80758;SDS011;70150;45.582;10.178;2023-08-06T13:30:19;0.60;;;0.57;;
80758;SDS011;70150;45.582;10.178;2023-08-06T13:32:45;0.40;;;0.40;;
80758;SDS011;70150;45.582;10.178;2023-08-06T13:35:11;1.30;;;0.40;;
80758;SDS011;70150;45.582;10.178;2023-08-06T13:37:36;0.88;;;0.65;;
80758;SDS011;70150;45.582;10.178;2023-08-06T13:40:02;0.60;;;0.47;;
80758;SDS011;70150;45.582;10.178;2023-08-06T13:42:28;0.40;;;0.40;;
80758;SDS011;70150;45.582;10.178;2023-08-06T13:44:54;1.85;;;0.40;;
80758;SDS011;70150;45.582;10.178;2023-08-06T13:47:27;0.47;;;0.40;;
80758;SDS011;70150;45.582;10.178;2023-08-06T13:49:53;0.70;;;0.50;;
80758;SDS011;70150;45.582;10.178;2023-08-06T13:52:18;0.88;;;0.68;;
80758;SDS011;70150;45.582;10.178;2023-08-06T13:54:44;1.10;;;0.50;;
80758;SDS011;70150;45.582;10.178;2023-08-06T13:57:10;0.32;;;0.32;;
80758;SDS011;70150;45.582;10.178;2023-08-06T13:59:38;0.47;;;0.40;;
80758;SDS011;70150;45.582;10.178;2023-08-06T14:02:03;0.63;;;0.30;;
80758;SDS011;70150;45.582;10.178;2023-08-06T14:04:29;1.42;;;0.40;;
80758;SDS011;70150;45.582;10.178;2023-08-06T14:06:54;0.40;;;0.30;;
80758;SDS011;70150;45.582;10.178;2023-08-06T14:09:20;0.40;;;0.35;;
80758;SDS011;70150;45.582;10.178;2023-08-06T14:11:46;1.85;;;0.40;;
80758;SDS011;70150;45.582;10.178;2023-08-06T14:14:12;0.85;;;0.35;;
80758;SDS011;70150;45.582;10.178;2023-08-06T14:16:37;0.50;;;0.40;;
80758;SDS011;70150;45.582;10.178;2023-08-06T14:19:03;1.55;;;0.60;;
80758;SDS011;70150;45.582;10.178;2023-08-06T14:21:29;0.63;;;0.50;;
80758;SDS011;70150;45.582;10.178;2023-08-06T14:23:54;0.95;;;0.43;;
80758;SDS011;70150;45.582;10.178;2023-08-06T14:26:20;0.30;;;0.30;;
80758;SDS011;70150;45.582;10.178;2023-08-06T14:28:45;0.55;;;0.32;;
80758;SDS011;70150;45.582;10.178;2023-08-06T14:31:11;1.73;;;0.43;;
80758;SDS011;70150;45.582;10.178;2023-08-06T14:33:37;0.70;;;0.40;;
80758;SDS011;70150;45.582;10.178;2023-08-06T14:36:03;0.52;;;0.30;;
80758;SDS011;70150;45.582;10.178;2023-08-06T14:38:29;0.73;;;0.20;;
80758;SDS011;70150;45.582;10.178;2023-08-06T14:40:54;1.15;;;0.30;;
80758;SDS011;70150;45.582;10.178;2023-08-06T14:43:20;0.40;;;0.30;;
80758;SDS011;70150;45.582;10.178;2023-08-06T14:45:46;0.32;;;0.30;;
80758;SDS011;70150;45.582;10.178;2023-08-06T14:48:11;1.95;;;0.38;;
80758;SDS011;70150;45.582;10.178;2023-08-06T14:50:37;0.90;;;0.20;;
80758;SDS011;70150;45.582;10.178;2023-08-06T14:53:04;0.30;;;0.30;;